Time;durP1;ratioP1;P1;durP2;ratioP2;P2;SDS_P1;SDS_P2;PMS_P1;PMS_P2;Temp;Humidity;BMP_temperature;BMP_pressure;BME280_temperature;BME280_humidity;BME280_pressure;Samples;Min_cycle;Max_cycle;Signal;HPM_P1;HPM_P2
2022/01/10 00:00:19;;;;;;;23.85;14.13;;;;;;;1.77;100.00;100975.09;5200854;28;20057;-73
2022/01/10 00:02:53;;;;;;;28.15;13.90;;;;;;;1.74;100.00;100975.22;5200276;28;20396;-73
2022/01/10 00:05:25;;;;;;;28.30;13.82;;;;;;;1.66;100.00;100983.34;5201567;28;20085;-73
2022/01/10 00:07:56;;;;;;;26.60;12.98;;;;;;;1.65;100.00;100994.56;5202297;28;20033;-74
2022/01/10 00:10:28;;;;;;;26.90;14.38;;;;;;;1.62;100.00;101002.47;5200835;28;20551;-74
2022/01/10 00:13:00;;;;;;;24.48;14.02;;;;;;;1.62;100.00;101001.63;5200627;28;20044;-74
2022/01/10 00:15:31;;;;;;;30.58;15.32;;;;;;;1.61;100.00;101002.53;5200140;28;20030;-74
2022/01/10 00:18:03;;;;;;;31.13;14.52;;;;;;;1.60;100.00;101001.72;5184184;28;20079;-74
2022/01/10 00:20:34;;;;;;;30.05;14.25;;;;;;;1.63;100.00;101014.50;5182500;28;20029;-74
2022/01/10 00:23:06;;;;;;;26.52;15.00;;;;;;;1.63;100.00;101014.50;5201495;28;20109;-74
2022/01/10 00:25:37;;;;;;;30.65;15.23;;;;;;;1.64;100.00;101016.16;5198253;28;20053;-74
2022/01/10 00:28:09;;;;;;;33.92;16.73;;;;;;;1.64;100.00;101020.47;5199567;28;20586;-74
2022/01/10 00:30:40;;;;;;;32.50;17.08;;;;;;;1.66;100.00;101018.66;5202864;28;20038;-74
2022/01/10 00:33:11;;;;;;;27.80;15.65;;;;;;;1.65;100.00;101015.25;5199348;28;20411;-74
2022/01/10 00:35:43;;;;;;;24.30;13.95;;;;;;;1.58;100.00;101013.00;5199929;28;20056;-74
2022/01/10 00:38:15;;;;;;;24.50;15.57;;;;;;;1.60;100.00;101018.94;5198913;28;20026;-74
2022/01/10 00:40:49;;;;;;;24.15;15.82;;;;;;;1.62;100.00;101020.53;5201710;28;20957;-74
2022/01/10 00:43:31;;;;;;;26.75;15.35;;;;;;;1.54;100.00;101014.88;5201626;28;20029;-74
2022/01/10 00:46:03;;;;;;;30.35;15.57;;;;;;;1.57;100.00;101019.06;5200627;28;20431;-74
2022/01/10 00:48:34;;;;;;;28.10;15.65;;;;;;;1.54;100.00;101022.63;5183654;28;20046;-74
2022/01/10 00:51:06;;;;;;;28.55;15.90;;;;;;;1.54;100.00;101040.69;5201849;28;20041;-74
2022/01/10 00:53:37;;;;;;;29.58;17.17;;;;;;;1.53;100.00;101043.34;5200955;28;20057;-74
2022/01/10 00:56:09;;;;;;;28.75;15.57;;;;;;;1.50;100.00;101048.66;5200416;28;20127;-75
2022/01/10 00:58:41;;;;;;;42.23;16.07;;;;;;;1.51;100.00;101048.56;5199285;28;20026;-74
2022/01/10 01:01:12;;;;;;;28.90;15.98;;;;;;;1.50;100.00;101049.50;5198573;28;20079;-74
2022/01/10 01:03:45;;;;;;;26.67;15.73;;;;;;;1.48;100.00;101058.19;5202766;28;20030;-74
2022/01/10 01:06:17;;;;;;;27.25;15.50;;;;;;;1.46;100.00;101055.69;5200142;28;20467;-74
2022/01/10 01:08:48;;;;;;;29.55;16.10;;;;;;;1.49;100.00;101062.47;5196342;28;20250;-74
2022/01/10 01:14:12;;;;;;;30.33;15.50;;;;;;;1.47;100.00;101080.59;5202781;28;20469;-74
2022/01/10 01:16:46;;;;;;;24.23;15.02;;;;;;;1.45;100.00;101087.59;5203040;28;20022;-74
2022/01/10 01:24:38;;;;;;;25.13;15.30;;;;;;;1.36;100.00;101099.13;5201567;28;20022;-74
2022/01/10 01:27:09;;;;;;;23.45;15.98;;;;;;;1.36;100.00;101103.44;5204361;28;20197;-73
2022/01/10 01:29:40;;;;;;;29.02;15.88;;;;;;;1.31;100.00;101095.91;5202255;28;20030;-73
2022/01/10 01:32:12;;;;;;;27.58;15.85;;;;;;;1.34;100.00;101111.28;5203239;28;20034;-73
2022/01/10 01:34:43;;;;;;;28.90;16.15;;;;;;;1.33;100.00;101119.94;5204762;28;20109;-74
2022/01/10 01:37:14;;;;;;;24.55;15.25;;;;;;;1.30;100.00;101119.22;5205000;28;20058;-75
2022/01/10 01:39:46;;;;;;;27.15;17.13;;;;;;;1.26;100.00;101117.66;5199053;28;20053;-73
2022/01/10 01:42:32;;;;;;;30.60;15.45;;;;;;;1.31;100.00;101126.03;5183845;28;20030;-74
2022/01/10 01:45:07;;;;;;;23.15;15.07;;;;;;;1.35;100.00;101135.34;5205611;28;20022;-74
2022/01/10 01:47:39;;;;;;;33.40;16.02;;;;;;;1.23;100.00;101134.09;5204204;28;20115;-73
2022/01/10 01:50:11;;;;;;;30.58;15.93;;;;;;;1.27;100.00;101148.56;5203276;28;20084;-74
2022/01/10 01:52:42;;;;;;;30.10;16.15;;;;;;;1.27;100.00;101155.47;5205282;28;20030;-74
2022/01/10 01:55:13;;;;;;;28.80;15.80;;;;;;;1.29;100.00;101161.38;5194315;28;20040;-73
2022/01/10 01:57:45;;;;;;;26.52;15.88;;;;;;;1.25;100.00;101157.25;5207301;28;20412;-73
2022/01/10 02:00:19;;;;;;;31.45;16.38;;;;;;;1.18;100.00;101159.28;5204111;28;20033;-73
2022/01/10 02:02:51;;;;;;;28.50;15.70;;;;;;;1.20;100.00;101162.63;5205248;28;20079;-73
2022/01/10 02:05:23;;;;;;;23.20;15.43;;;;;;;1.20;100.00;101171.19;5203931;28;20027;-73
2022/01/10 02:07:54;;;;;;;31.17;17.65;;;;;;;1.24;100.00;101169.31;5202960;28;20628;-73
2022/01/10 02:10:26;;;;;;;24.30;14.32;;;;;;;1.20;100.00;101171.19;5184923;28;20034;-73
2022/01/10 02:12:58;;;;;;;25.77;14.82;;;;;;;1.25;100.00;101178.78;5185733;28;20475;-73
2022/01/10 02:16:31;;;;;;;24.83;15.85;;;;;;;1.34;100.00;101175.81;5177224;28;20026;-73
2022/01/10 02:18:27;;;;;;;33.50;16.65;;;;;;;1.24;100.00;101171.06;5193827;28;20507;-73
2022/01/10 02:21:01;;;;;;;37.15;17.02;;;;;;;1.24;100.00;101181.41;5204698;28;20056;-73
2022/01/10 02:23:33;;;;;;;33.40;16.23;;;;;;;1.21;100.00;101182.34;5203297;28;20112;-73
2022/01/10 02:26:04;;;;;;;26.08;14.48;;;;;;;1.24;100.00;101187.41;5202795;28;20304;-73
2022/01/10 02:28:36;;;;;;;32.58;17.38;;;;;;;1.20;100.00;101185.84;5202175;28;20495;-73
2022/01/10 02:31:10;;;;;;;27.10;15.68;;;;;;;1.25;100.00;101185.66;5203831;28;20121;-73
2022/01/10 02:33:42;;;;;;;31.23;16.77;;;;;;;1.23;100.00;101201.22;5200263;28;20076;-73
2022/01/10 02:36:26;;;;;;;34.20;17.10;;;;;;;1.23;100.00;101195.22;5201733;28;20061;-74
2022/01/10 02:39:01;;;;;;;29.15;16.50;;;;;;;1.27;100.00;101197.59;5202116;28;20042;-74
2022/01/10 02:41:38;;;;;;;27.45;16.52;;;;;;;1.30;100.00;101209.56;5193784;28;20479;-74
2022/01/10 02:44:14;;;;;;;31.38;16.80;;;;;;;1.28;100.00;101214.75;5202437;28;20153;-74
2022/01/10 02:46:46;;;;;;;31.42;16.58;;;;;;;1.31;100.00;101221.53;5202706;28;20051;-74
2022/01/10 02:49:24;;;;;;;33.08;16.45;;;;;;;1.41;100.00;101225.44;5202659;28;20081;-74
2022/01/10 02:51:58;;;;;;;33.25;17.30;;;;;;;1.38;100.00;101233.31;5200626;28;20490;-74
2022/01/10 02:54:29;;;;;;;29.30;15.75;;;;;;;1.36;100.00;101232.50;5204415;28;20026;-74
2022/01/10 02:57:00;;;;;;;32.25;16.73;;;;;;;1.40;100.00;101239.22;5204934;28;20030;-74
2022/01/10 02:59:31;;;;;;;32.42;16.30;;;;;;;1.38;100.00;101253.97;5201244;28;20026;-74
2022/01/10 03:02:03;;;;;;;28.85;16.13;;;;;;;1.38;100.00;101251.38;5199511;28;20112;-74
2022/01/10 03:04:34;;;;;;;27.10;15.48;;;;;;;1.38;100.00;101254.78;5202915;28;20037;-74
2022/01/10 03:07:06;;;;;;;30.10;15.82;;;;;;;1.36;100.00;101255.75;5201428;28;20028;-74
2022/01/10 03:09:37;;;;;;;28.40;15.27;;;;;;;1.40;100.00;101265.06;5201571;28;20113;-74
2022/01/10 03:12:09;;;;;;;28.17;16.15;;;;;;;1.45;100.00;101265.72;5203088;28;20101;-73
2022/01/10 03:14:42;;;;;;;30.05;15.25;;;;;;;1.42;100.00;101265.84;5202165;28;20483;-73
2022/01/10 03:17:13;;;;;;;28.95;15.10;;;;;;;1.45;100.00;101278.63;5203463;28;20108;-73
2022/01/10 03:19:44;;;;;;;29.67;16.27;;;;;;;1.44;100.00;101277.78;5202507;28;20100;-73
2022/01/10 03:22:16;;;;;;;24.75;15.27;;;;;;;1.42;100.00;101274.41;5201833;28;20281;-73
2022/01/10 03:24:47;;;;;;;25.73;15.48;;;;;;;1.43;100.00;101281.25;5203983;28;20025;-73
2022/01/10 03:27:18;;;;;;;26.58;16.38;;;;;;;1.41;100.00;101290.81;5200809;28;20045;-73
2022/01/10 03:29:51;;;;;;;28.88;15.77;;;;;;;1.46;100.00;101298.38;5185138;28;20018;-73
2022/01/10 03:32:22;;;;;;;34.85;16.05;;;;;;;1.43;100.00;101295.91;5203499;28;20041;-73
2022/01/10 03:34:54;;;;;;;29.33;15.32;;;;;;;1.43;100.00;101303.66;5201872;28;20423;-73
2022/01/10 03:37:25;;;;;;;29.08;15.68;;;;;;;1.44;100.00;101303.63;5183655;28;20575;-73
2022/01/10 03:39:57;;;;;;;25.80;16.08;;;;;;;1.41;100.00;101310.63;5182339;28;20044;-73
2022/01/10 03:42:28;;;;;;;27.02;15.13;;;;;;;1.45;100.00;101320.78;5201309;28;20569;-73
2022/01/10 03:45:00;;;;;;;25.83;15.35;;;;;;;1.43;100.00;101324.31;5199655;28;20026;-73
2022/01/10 03:47:31;;;;;;;26.25;15.05;;;;;;;1.45;100.00;101335.44;5202191;28;20045;-73
2022/01/10 03:50:05;;;;;;;29.48;15.55;;;;;;;1.44;100.00;101347.50;5200427;28;20045;-73
2022/01/10 03:52:36;;;;;;;28.58;15.57;;;;;;;1.45;100.00;101345.75;5181702;28;20029;-73
2022/01/10 03:55:08;;;;;;;28.40;15.45;;;;;;;1.43;100.00;101337.22;5201853;28;20026;-73
2022/01/10 03:57:39;;;;;;;27.20;15.45;;;;;;;1.45;100.00;101351.75;5202352;28;20500;-73
2022/01/10 04:00:11;;;;;;;26.58;15.43;;;;;;;1.45;100.00;101344.03;5204043;28;20018;-73
2022/01/10 04:02:48;;;;;;;27.35;16.00;;;;;;;1.46;100.00;101353.44;5181088;28;20037;-73
2022/01/10 04:05:20;;;;;;;29.92;14.40;;;;;;;1.45;100.00;101362.09;5203043;28;20026;-73
2022/01/10 04:07:51;;;;;;;27.95;15.20;;;;;;;1.46;100.00;101362.94;5201264;28;20084;-73
2022/01/10 04:10:22;;;;;;;30.08;16.35;;;;;;;1.49;100.00;101367.97;5200039;28;20033;-73
2022/01/10 04:12:54;;;;;;;28.60;16.35;;;;;;;1.41;100.00;101347.63;5201766;28;20392;-73
2022/01/10 04:15:25;;;;;;;32.28;16.20;;;;;;;1.51;100.00;101368.75;5201073;28;20101;-72
2022/01/10 04:17:59;;;;;;;30.63;16.73;;;;;;;1.51;100.00;101365.31;5201748;28;20434;-73
2022/01/10 04:20:30;;;;;;;35.70;16.73;;;;;;;1.53;100.00;101366.97;5200244;28;20384;-73
2022/01/10 04:23:02;;;;;;;28.92;16.75;;;;;;;1.53;100.00;101366.97;5200637;28;20113;-73
2022/01/10 04:25:34;;;;;;;30.00;15.90;;;;;;;1.50;100.00;101374.81;5201064;28;20018;-73
2022/01/10 04:28:05;;;;;;;35.22;16.85;;;;;;;1.53;100.00;101385.03;5201440;28;20025;-73
2022/01/10 04:30:37;;;;;;;35.20;16.73;;;;;;;1.52;100.00;101385.09;5202249;28;20501;-73
2022/01/10 04:33:10;;;;;;;33.70;17.88;;;;;;;1.52;100.00;101391.09;5201088;28;20044;-73
2022/01/10 04:35:41;;;;;;;37.35;18.90;;;;;;;1.54;100.00;101386.72;5200526;28;20053;-73
2022/01/10 04:38:13;;;;;;;33.72;17.52;;;;;;;1.52;100.00;101398.84;5201749;28;20082;-73
2022/01/10 04:40:45;;;;;;;28.98;17.50;;;;;;;1.55;100.00;101421.94;5199901;28;20531;-73
2022/01/10 04:43:16;;;;;;;34.30;17.85;;;;;;;1.51;100.00;101415.22;5199972;28;20053;-73
2022/01/10 04:45:48;;;;;;;31.05;17.17;;;;;;;1.49;100.00;101408.44;5201708;28;20367;-73
2022/01/10 04:48:19;;;;;;;35.92;18.48;;;;;;;1.50;100.00;101423.88;5203346;28;20054;-74
2022/01/10 04:53:44;;;;;;;37.05;17.95;;;;;;;1.60;100.00;101448.47;5199080;28;20042;-74
2022/01/10 04:56:17;;;;;;;33.80;17.85;;;;;;;1.62;100.00;101451.81;5200284;28;20022;-73
2022/01/10 04:58:50;;;;;;;;;;;;;;;2.07;100.00;101453.53;5202534;28;20472;-73
2022/01/10 05:01:23;;;;;;;29.27;16.52;;;;;;;1.70;100.00;101454.97;5203169;28;19991;-73
2022/01/10 05:03:54;;;;;;;36.73;18.23;;;;;;;1.72;100.00;101472.16;5188921;28;20144;-73
2022/01/10 05:06:26;;;;;;;32.45;19.08;;;;;;;1.68;100.00;101469.66;5202511;28;20121;-73
2022/01/10 05:08:57;;;;;;;35.47;18.70;;;;;;;1.74;100.00;101475.50;5204755;28;20417;-73
2022/01/10 05:11:28;;;;;;;39.78;19.17;;;;;;;1.73;100.00;101485.00;5184752;28;20088;-73
2022/01/10 05:14:00;;;;;;;30.63;17.42;;;;;;;1.81;100.00;101493.28;5205744;28;20026;-73
2022/01/10 05:16:31;;;;;;;34.05;18.02;;;;;;;1.82;100.00;101499.28;5206638;28;20026;-73
2022/01/10 05:19:03;;;;;;;40.20;18.75;;;;;;;1.79;100.00;101494.25;5204711;28;20180;-73
2022/01/10 05:21:34;;;;;;;32.88;19.67;;;;;;;1.80;100.00;101499.38;5204943;28;20029;-73
2022/01/10 05:24:07;;;;;;;32.42;18.33;;;;;;;1.80;100.00;101496.78;5204410;28;20529;-73
2022/01/10 05:26:38;;;;;;;29.48;18.35;;;;;;;1.79;100.00;101504.59;5202271;28;20033;-73
2022/01/10 05:29:09;;;;;;;27.92;18.67;;;;;;;1.86;100.00;101521.56;5201431;28;20026;-73
2022/01/10 05:31:41;;;;;;;33.25;19.02;;;;;;;1.85;100.00;101512.94;5203178;28;20049;-73
2022/01/10 05:34:12;;;;;;;36.42;18.67;;;;;;;1.88;100.00;101514.56;5205251;28;20029;-73
2022/01/10 05:36:43;;;;;;;38.97;19.23;;;;;;;1.85;100.00;101523.28;5204553;28;20058;-73
2022/01/10 05:39:15;;;;;;;30.88;18.73;;;;;;;1.86;100.00;101531.91;5202276;28;20034;-73
2022/01/10 05:41:46;;;;;;;32.53;18.73;;;;;;;1.87;100.00;101544.75;5204587;28;20080;-73
2022/01/10 05:44:18;;;;;;;35.47;20.45;;;;;;;1.88;100.00;101549.00;5205491;28;20017;-73
2022/01/10 05:46:49;;;;;;;38.38;19.02;;;;;;;1.86;100.00;101542.22;5203927;28;20026;-74
2022/01/10 05:49:32;;;;;;;39.75;20.23;;;;;;;1.85;100.00;101546.53;5204401;28;20042;-73
2022/01/10 05:52:04;;;;;;;36.67;20.30;;;;;;;1.93;100.00;101548.81;5203545;28;20102;-73
2022/01/10 05:54:35;;;;;;;32.08;18.67;;;;;;;1.92;100.00;101554.91;5204114;28;20093;-73
2022/01/10 05:57:07;;;;;;;37.00;19.67;;;;;;;1.91;100.00;101560.97;5202592;28;20018;-73
2022/01/10 05:59:38;;;;;;;31.17;19.65;;;;;;;1.92;100.00;101560.91;5204049;28;20044;-73
2022/01/10 06:02:10;;;;;;;30.98;18.88;;;;;;;1.90;100.00;101560.13;5187395;28;20459;-73
2022/01/10 06:04:41;;;;;;;34.45;19.13;;;;;;;1.99;100.00;101558.94;5204726;28;20506;-73
2022/01/10 06:07:13;;;;;;;32.00;19.83;;;;;;;1.91;100.00;101558.38;5202521;28;20154;-73
2022/01/10 06:09:44;;;;;;;35.13;18.67;;;;;;;1.94;100.00;101576.38;5204100;28;20490;-74
2022/01/10 06:12:15;;;;;;;34.13;20.98;;;;;;;1.96;100.00;101579.72;5202938;28;20399;-74
2022/01/10 06:14:47;;;;;;;48.33;20.73;;;;;;;1.97;100.00;101593.47;5205490;28;20456;-74
2022/01/10 06:17:18;;;;;;;36.65;20.50;;;;;;;1.95;100.00;101585.81;5204365;28;20027;-74
2022/01/10 06:19:49;;;;;;;31.90;19.55;;;;;;;1.97;100.00;101594.34;5204505;28;20026;-75
2022/01/10 06:22:20;;;;;;;33.65;20.17;;;;;;;1.99;100.00;101600.28;5203423;28;20552;-74
2022/01/10 06:24:52;;;;;;;34.40;19.23;;;;;;;2.01;100.00;101603.69;5204466;28;20018;-75
2022/01/10 06:27:23;;;;;;;32.72;19.55;;;;;;;2.03;100.00;101611.34;5203524;28;20495;-74
2022/01/10 06:29:54;;;;;;;31.38;19.13;;;;;;;2.01;100.00;101608.84;5203453;28;20068;-74
2022/01/10 06:32:26;;;;;;;33.72;20.50;;;;;;;2.04;100.00;101624.22;5200499;28;20045;-74
2022/01/10 06:34:57;;;;;;;33.03;19.65;;;;;;;2.07;100.00;101628.44;5201775;28;20048;-74
2022/01/10 06:37:29;;;;;;;30.60;19.60;;;;;;;2.07;100.00;101634.44;5201679;28;20034;-74
2022/01/10 06:40:00;;;;;;;33.20;19.80;;;;;;;2.06;100.00;101640.53;5203075;28;20582;-74
2022/01/10 06:42:32;;;;;;;33.33;19.38;;;;;;;2.07;100.00;101638.78;5202175;28;20101;-74
2022/01/10 06:45:04;;;;;;;33.15;21.30;;;;;;;1.99;100.00;101631.31;5204755;28;20021;-74
2022/01/10 06:47:35;;;;;;;39.67;20.80;;;;;;;2.07;100.00;101643.94;5201839;28;20046;-74
2022/01/10 06:50:08;;;;;;;32.25;20.58;;;;;;;2.06;100.00;101640.53;5203331;28;20045;-74
2022/01/10 06:52:39;;;;;;;33.67;20.55;;;;;;;2.08;100.00;101650.78;5202360;28;20026;-74
2022/01/10 06:55:11;;;;;;;35.53;20.92;;;;;;;2.07;100.00;101654.28;5202501;28;20032;-74
2022/01/10 06:57:42;;;;;;;35.17;20.65;;;;;;;2.11;100.00;101669.63;5203376;28;20037;-74
2022/01/10 07:00:15;;;;;;;33.22;20.25;;;;;;;2.10;100.00;101665.34;5200680;28;20375;-74
2022/01/10 07:02:46;;;;;;;34.28;20.73;;;;;;;2.09;100.00;101674.00;5199405;28;20053;-74
2022/01/10 07:05:17;;;;;;;31.05;19.35;;;;;;;2.12;100.00;101684.25;5195718;28;20495;-74
2022/01/10 07:07:48;;;;;;;30.33;19.65;;;;;;;2.10;100.00;101688.63;5199193;28;20038;-74
2022/01/10 07:10:20;;;;;;;32.42;20.17;;;;;;;2.08;100.00;101694.72;5199909;28;20030;-74
2022/01/10 07:12:53;;;;;;;29.52;19.10;;;;;;;2.04;100.00;101691.41;5198041;28;20373;-74
2022/01/10 07:15:26;;;;;;;31.52;20.08;;;;;;;2.06;100.00;101704.28;5200591;28;21298;-74
2022/01/10 07:17:57;;;;;;;31.45;19.77;;;;;;;2.06;100.00;101699.97;5202207;28;20130;-73
2022/01/10 07:20:28;;;;;;;34.75;19.42;;;;;;;2.12;100.00;101715.28;5200909;28;20144;-75
2022/01/10 07:23:00;;;;;;;32.80;19.38;;;;;;;2.13;100.00;101714.38;5201509;28;20282;-74
2022/01/10 07:25:32;;;;;;;33.53;20.33;;;;;;;2.09;100.00;101717.13;5200841;28;20468;-75
2022/01/10 07:28:03;;;;;;;27.48;19.58;;;;;;;2.10;100.00;101735.16;5200529;28;20034;-74
2022/01/10 07:30:35;;;;;;;30.85;19.33;;;;;;;2.12;100.00;101743.69;5203446;28;20045;-74
2022/01/10 07:33:06;;;;;;;28.02;19.38;;;;;;;2.13;100.00;101736.78;5202588;28;20036;-75
2022/01/10 07:35:38;;;;;;;34.53;20.98;;;;;;;2.11;100.00;101752.34;5192955;28;20049;-75
2022/01/10 07:38:09;;;;;;;29.67;18.38;;;;;;;2.11;100.00;101754.06;5194213;28;20471;-75
2022/01/10 07:40:41;;;;;;;32.53;19.52;;;;;;;2.02;100.00;101744.06;5203077;28;20064;-75
2022/01/10 07:43:12;;;;;;;34.05;19.95;;;;;;;2.06;100.00;101762.00;5203534;28;20033;-75
2022/01/10 07:45:43;;;;;;;30.33;19.05;;;;;;;2.03;100.00;101775.03;5202281;28;20121;-75
2022/01/10 07:48:15;;;;;;;31.58;19.15;;;;;;;2.05;100.00;101780.16;5201050;28;20046;-74
2022/01/10 07:50:46;;;;;;;33.67;19.77;;;;;;;1.98;100.00;101771.75;5201263;28;20080;-74
2022/01/10 07:53:18;;;;;;;32.97;20.25;;;;;;;2.03;100.00;101793.13;5201369;28;20080;-74
2022/01/10 07:55:50;;;;;;;38.13;21.05;;;;;;;2.05;100.00;101800.84;5202171;28;20030;-74
2022/01/10 07:58:21;;;;;;;34.93;20.13;;;;;;;2.07;100.00;101809.38;5200952;28;20377;-74
2022/01/10 08:00:53;;;;;;;33.00;19.15;;;;;;;2.01;100.00;101810.44;5203011;28;20284;-74
2022/01/10 08:03:26;;;;;;;37.58;21.30;;;;;;;2.02;100.00;101819.03;5198779;28;20737;-74
2022/01/10 08:05:57;;;;;;;41.47;22.52;;;;;;;2.00;100.00;101819.06;5195677;28;20108;-74
2022/01/10 08:08:28;;;;;;;38.33;22.88;;;;;;;1.99;100.00;101826.88;5200479;28;20022;-74
2022/01/10 08:11:00;;;;;;;37.15;21.33;;;;;;;1.97;100.00;101833.81;5200508;28;20021;-74
2022/01/10 08:13:31;;;;;;;31.73;21.67;;;;;;;1.94;100.00;101830.47;5200376;28;20387;-74
2022/01/10 08:16:03;;;;;;;37.25;22.35;;;;;;;1.93;100.00;101841.69;5199911;28;20562;-74
2022/01/10 08:18:35;;;;;;;37.92;22.05;;;;;;;1.87;100.00;101831.56;5199573;28;20103;-74
2022/01/10 08:21:06;;;;;;;33.47;21.77;;;;;;;1.91;100.00;101850.38;5203560;28;20522;-74
2022/01/10 08:23:38;;;;;;;35.40;21.85;;;;;;;1.88;100.00;101853.91;5198961;28;20036;-75
2022/01/10 08:26:09;;;;;;;34.33;20.95;;;;;;;1.94;100.00;101860.63;5177843;28;20026;-75
2022/01/10 08:28:41;;;;;;;36.22;22.10;;;;;;;1.97;100.00;101863.13;5195385;28;20619;-75
2022/01/10 08:31:12;;;;;;;34.65;21.65;;;;;;;1.91;100.00;101858.13;5181316;28;20057;-75
2022/01/10 08:33:45;;;;;;;35.72;21.42;;;;;;;1.95;100.00;101872.66;5190473;28;20027;-75
2022/01/10 08:36:17;;;;;;;33.92;21.92;;;;;;;1.98;100.00;101882.88;5197592;28;20033;-75
2022/01/10 08:38:48;;;;;;;34.17;20.80;;;;;;;1.99;100.00;101892.31;5201059;28;20037;-75
2022/01/10 08:41:20;;;;;;;35.65;22.02;;;;;;;2.04;100.00;101893.00;5205346;28;20034;-75
2022/01/10 08:43:51;;;;;;;35.88;23.17;;;;;;;2.03;100.00;101912.00;5196785;28;20550;-75
2022/01/10 08:46:23;;;;;;;36.75;22.83;;;;;;;2.06;100.00;101913.66;5200955;28;20575;-75
2022/01/10 08:48:54;;;;;;;35.47;22.27;;;;;;;2.09;100.00;101921.31;5205847;28;20050;-75
2022/01/10 08:51:28;;;;;;;37.47;22.05;;;;;;;2.10;100.00;101921.25;5203195;28;20397;-75
2022/01/10 08:54:02;;;;;;;33.85;21.65;;;;;;;2.16;100.00;101935.75;5202948;28;20022;-75
2022/01/10 08:56:34;;;;;;;34.58;21.73;;;;;;;2.14;100.00;101933.19;5202147;28;20106;-75
2022/01/10 08:59:06;;;;;;;36.13;22.13;;;;;;;2.24;100.00;101946.69;5199824;28;20133;-75
2022/01/10 09:01:38;;;;;;;35.53;20.60;;;;;;;2.27;100.00;101950.88;5198895;28;20021;-75
2022/01/10 09:04:15;;;;;;;34.33;21.27;;;;;;;2.24;100.00;101938.91;5201571;28;20105;-75
2022/01/10 09:06:49;;;;;;;36.10;21.33;;;;;;;2.32;100.00;101946.44;5200513;28;20423;-74
2022/01/10 09:09:21;;;;;;;30.92;20.48;;;;;;;2.31;100.00;101960.22;5202041;28;20042;-74
2022/01/10 09:11:52;;;;;;;31.52;20.45;;;;;;;2.33;100.00;101966.22;5198839;28;20337;-74
2022/01/10 09:14:23;;;;;;;36.72;21.83;;;;;;;2.35;100.00;101960.09;5198915;28;20129;-74
2022/01/10 09:16:55;;;;;;;32.97;20.35;;;;;;;2.33;100.00;101971.38;5202105;28;20037;-75
2022/01/10 09:19:26;;;;;;;34.05;21.05;;;;;;;2.33;100.00;101971.38;5202200;28;20440;-73
2022/01/10 09:21:58;;;;;;;31.08;20.05;;;;;;;2.25;100.00;101958.69;5201094;28;20069;-73
2022/01/10 09:24:29;;;;;;;33.13;20.58;;;;;;;2.34;100.00;101973.91;5203511;28;20085;-73
2022/01/10 09:27:00;;;;;;;33.92;21.40;;;;;;;2.41;100.00;101971.97;5201182;28;20501;-73
2022/01/10 09:29:32;;;;;;;33.88;21.13;;;;;;;2.39;100.00;101979.78;5196773;28;20032;-73
2022/01/10 09:32:04;;;;;;;32.13;22.25;;;;;;;2.40;100.00;101981.47;5199877;28;20033;-73
2022/01/10 09:34:35;;;;;;;32.90;21.73;;;;;;;2.39;100.00;101986.72;5203143;28;20077;-73
2022/01/10 09:37:07;;;;;;;30.90;20.88;;;;;;;2.37;100.00;101983.31;5198531;28;20025;-73
2022/01/10 09:39:38;;;;;;;33.25;22.20;;;;;;;2.43;100.00;101990.88;5190888;28;20117;-73
2022/01/10 09:42:12;;;;;;;32.40;21.67;;;;;;;2.53;100.00;101991.41;5197814;28;20492;-73
2022/01/10 09:44:44;;;;;;;34.60;21.58;;;;;;;2.48;100.00;101989.00;5202828;28;20056;-73
2022/01/10 09:47:15;;;;;;;33.78;22.67;;;;;;;2.49;100.00;102001.00;5198582;28;20507;-73
2022/01/10 09:49:46;;;;;;;32.80;20.95;;;;;;;2.55;100.00;101997.41;5200523;28;20030;-73
2022/01/10 09:52:18;;;;;;;34.28;20.88;;;;;;;2.49;100.00;102003.59;5201508;28;20039;-73
2022/01/10 09:54:52;;;;;;;34.00;20.90;;;;;;;2.52;100.00;102016.44;5197333;28;20455;-73
2022/01/10 09:57:23;;;;;;;31.27;20.70;;;;;;;2.52;100.00;102008.69;5199917;28;20109;-73
2022/01/10 09:59:54;;;;;;;31.95;21.33;;;;;;;2.62;100.00;102015.25;5197782;28;20117;-73
2022/01/10 10:02:33;;;;;;;30.33;19.92;;;;;;;2.73;100.00;102016.63;5201069;28;21013;-73
2022/01/10 10:05:05;;;;;;;30.83;20.58;;;;;;;2.73;100.00;102022.66;5203171;28;20045;-73
2022/01/10 10:07:38;;;;;;;33.15;20.35;;;;;;;2.77;100.00;102021.66;5203393;28;20030;-73
2022/01/10 10:10:13;;;;;;;26.90;19.13;;;;;;;2.84;100.00;102046.44;5201805;28;20029;-73
2022/01/10 10:12:48;;;;;;;28.60;19.23;;;;;;;2.91;100.00;102050.50;5202842;28;20271;-73
2022/01/10 10:15:26;;;;;;;27.33;18.83;;;;;;;2.94;100.00;102049.56;5201049;28;20021;-73
2022/01/10 10:17:57;;;;;;;31.40;19.70;;;;;;;2.93;100.00;102032.34;5201045;28;20030;-73
2022/01/10 10:20:29;;;;;;;28.90;19.98;;;;;;;3.06;100.00;102053.47;5201460;28;20081;-73
2022/01/10 10:23:03;;;;;;;26.38;18.80;;;;;;;3.21;100.00;102081.44;5200999;28;20080;-73
2022/01/10 10:25:34;;;;;;;28.90;17.58;;;;;;;3.22;100.00;102079.69;5184890;28;20512;-73
2022/01/10 10:28:06;;;;;;;25.92;17.80;;;;;;;3.31;100.00;102084.56;5201371;28;20068;-73
2022/01/10 10:30:37;;;;;;;28.23;17.38;;;;;;;3.35;100.00;102091.34;5203626;28;20018;-73
2022/01/10 10:33:20;;;;;;;29.13;18.88;;;;;;;3.49;100.00;102091.69;5203518;28;20063;-73
2022/01/10 10:36:10;;;;;;;24.58;17.67;;;;;;;3.62;100.00;102097.28;5183685;28;20100;-73
2022/01/10 10:38:42;;;;;;;28.77;18.52;;;;;;;3.44;100.00;102091.00;5200100;28;20037;-73
2022/01/10 10:41:13;;;;;;;28.13;17.63;;;;;;;3.52;100.00;102099.34;5199859;28;20072;-73
2022/01/10 10:43:45;;;;;;;28.85;19.48;;;;;;;3.56;100.00;102095.78;5199939;28;20374;-73
2022/01/10 10:46:18;;;;;;;27.30;17.88;;;;;;;3.63;100.00;102092.03;5200985;28;20450;-73
2022/01/10 10:48:52;;;;;;;24.58;18.27;;;;;;;3.78;100.00;102106.19;5199737;28;20125;-74
2022/01/10 10:51:29;;;;;;;28.08;18.25;;;;;;;3.96;100.00;102096.06;5200608;28;20021;-74
2022/01/10 10:54:06;;;;;;;27.23;18.30;;;;;;;3.99;100.00;102093.38;5202199;28;20041;-74
2022/01/10 10:56:39;;;;;;;26.00;17.27;;;;;;;3.93;100.00;102094.41;5200069;28;20546;-73
2022/01/10 10:59:12;;;;;;;23.58;16.95;;;;;;;3.99;100.00;102098.56;5199231;28;20060;-74
2022/01/10 11:01:43;;;;;;;27.80;17.25;;;;;;;4.01;100.00;102099.31;5198509;28;20026;-73
2022/01/10 11:04:14;;;;;;;26.05;16.33;;;;;;;4.04;100.00;102110.44;5199485;28;20049;-73
2022/01/10 11:06:47;;;;;;;25.98;16.13;;;;;;;4.06;100.00;102112.97;5200450;28;20504;-73
2022/01/10 11:09:18;;;;;;;27.08;17.83;;;;;;;4.11;100.00;102124.03;5200521;28;20057;-73
2022/01/10 11:11:50;;;;;;;30.00;16.40;;;;;;;4.15;100.00;102123.00;5197633;28;20185;-73
2022/01/10 11:14:24;;;;;;;23.73;15.73;;;;;;;4.20;100.00;102134.03;5200921;28;20029;-73
2022/01/10 11:16:55;;;;;;;29.42;16.63;;;;;;;4.11;100.00;102118.84;5201452;28;20076;-74
2022/01/10 11:19:27;;;;;;;24.77;16.88;;;;;;;4.24;100.00;102132.19;5197253;28;20030;-74
2022/01/10 11:22:07;;;;;;;25.35;16.25;;;;;;;4.37;100.00;102138.59;5200687;28;20095;-73
2022/01/10 11:24:52;;;;;;;26.23;16.95;;;;;;;4.37;100.00;102146.38;5198920;28;20108;-73
2022/01/10 11:27:29;;;;;;;27.63;16.17;;;;;;;4.43;100.00;102147.88;5198510;28;20030;-73
2022/01/10 11:30:23;;;;;;;27.05;16.95;;;;;;;4.56;100.00;102155.16;5198399;28;20062;-73
2022/01/10 11:32:57;;;;;;;25.73;17.63;;;;;;;4.42;100.00;102146.22;5198589;28;20034;-73
2022/01/10 11:35:43;;;;;;;25.95;15.95;;;;;;;4.64;100.00;102154.88;5199711;28;20053;-74
2022/01/10 11:38:38;;;;;;;26.05;16.63;;;;;;;4.64;100.00;102160.91;5199714;28;20042;-73
2022/01/10 11:41:14;;;;;;;24.40;15.75;;;;;;;4.63;100.00;102156.63;5198207;28;20087;-73
2022/01/10 11:43:56;;;;;;;26.45;16.98;;;;;;;4.78;100.00;102152.56;5196137;28;20420;-73